Flight Information

DEPARTURE
MEDFORD, OR
Elevation:
1335
Runways:
14/32 - 8800x150 - ASPH-G
ATIS:
127.25
Ground:
121.8
Tower:
MEDFORD TOWER 119.4
DESTINATION
,
Elevation:
TPA:
1000 (est.)


6818.1 NM66° True-18° Var48° HDG

Flight Plan:
(click to file on line)

1. Type
2. Aircraft Identification
3. Aircraft Type / Special Equipment
4. True Airspeed
kts
5. Departure Airport
(ICAO code)
6. Arriving Airport
(ICAO code)
7. Cruising Altitude
ft
8. Alternate Airport
(ICAO code)
9. Route of Flight
10. Remarks


00:00:00 Departure ATIS: Destination ATIS:

Clearance Limit:
Route:
Altitude: Expect in minutes
Frequency:
Transponder: (7500 Hijack / 7600 Lost Comms / 7700 Emergency)


KMFR 010653Z AUTO 27004KT 10SM OVC042 04/02 A3012 RMK AO2 SLP205 T00440017
Time: 2020-04-01T06:53:00Z
1585727297
Winds: 270 @ 4 kts
Visibility: 10.0 sm
Clouds (AGL): OVC 4200
Temperature: 4.4 C
Dew Point: 1.7 C
Pressure: 30.121063 in Hgbr


Notes:

Data extracted from FAA Digital Chart Supplement. Effective: 0901Z Thursday, Mar 26, 2020 to 0901Z Thursday, May 21, 2020
Current ATIS data is provided courtisy of PilotEdge.